63IS weather

Corn Alley Airport
El Paso, Illinois, United States

Public forecast

Using degrees Fahrenheit for public forecast. Weather courtesy of forecast.io.

METAR (pilot weather report)

Closest report is Central Illinois Regional Airport at Bloomington-Normal, 17.8 nm (33.0 km) S. Retrieved 2019/06/19 09:56 UTC (38 minutes ago):

KBMI 190956Z AUTO 11005KT 8SM CLR 18/16 A2981 RMK AO2 SLP089 T01780156

TAF (pilot weather forecast)

Closest forecast is Central Illinois Regional Airport at Bloomington-Normal, 17.8 nm (33.0 km) S. Retrieved 2019/06/19 06:24 UTC (4 hours ago):

TAF KBMI 190523Z 1906/2006 VRB04KT P6SM BKN080 FM191100 VRB03KT 6SM BR BKN060 FM191600 VRB04KT P6SM VCSH BKN035 FM191800 VRB03KT 6SM -SHRA BR VCTS OVC025CB FM200100 VRB04KT 4SM -RA BR OVC015